Time;durP1;ratioP1;P1;durP2;ratioP2;P2;SDS_P1;SDS_P2;PMS_P1;PMS_P2;Temp;Humidity;BMP_temperature;BMP_pressure;BME280_temperature;BME280_humidity;BME280_pressure;Samples;Min_cycle;Max_cycle;Signal;HPM_P1;HPM_P2
2022/04/16 00:00:19;;;;;;;31.35;28.10;;;;;;;7.43;100.00;99427.91;2057411;28;20197;-69
2022/04/16 00:01:23;;;;;;;33.28;27.77;;;;;;;7.44;100.00;99426.06;2065633;28;20227;-69
2022/04/16 00:02:24;;;;;;;35.50;28.75;;;;;;;7.42;100.00;99428.19;2065895;28;20680;-69
2022/04/16 00:03:26;;;;;;;32.67;27.30;;;;;;;7.43;100.00;99425.25;2066132;28;20592;-69
2022/04/16 00:04:27;;;;;;;33.60;26.85;;;;;;;7.43;100.00;99419.16;2065885;28;20563;-69
2022/04/16 00:05:29;;;;;;;33.37;28.77;;;;;;;7.42;100.00;99421.00;2065229;28;20275;-70
2022/04/16 00:06:31;;;;;;;34.53;28.98;;;;;;;7.37;100.00;99421.78;2056866;28;20226;-69
2022/04/16 00:07:34;;;;;;;31.30;27.98;;;;;;;7.39;100.00;99426.06;2057391;28;20260;-69
2022/04/16 00:08:35;;;;;;;35.30;29.90;;;;;;;7.34;100.00;99427.66;2065339;28;20200;-69
2022/04/16 00:09:37;;;;;;;36.90;29.73;;;;;;;7.32;100.00;99421.03;2065853;28;20271;-69
2022/04/16 00:10:39;;;;;;;35.30;28.13;;;;;;;7.31;100.00;99422.88;2064892;28;20209;-70
2022/04/16 00:11:41;;;;;;;33.30;27.80;;;;;;;7.32;100.00;99415.72;2065303;28;20583;-69
2022/04/16 00:12:42;;;;;;;33.40;28.67;;;;;;;7.32;100.00;99415.72;2065827;28;20199;-69
2022/04/16 00:13:46;;;;;;;35.60;28.50;;;;;;;7.33;100.00;99420.75;2065912;28;20288;-69
2022/04/16 00:14:49;;;;;;;31.00;27.42;;;;;;;7.35;100.00;99431.09;2065142;28;20259;-69
2022/04/16 00:15:54;;;;;;;32.97;28.80;;;;;;;7.31;100.00;99422.88;2065220;28;20216;-69
2022/04/16 00:16:58;;;;;;;32.72;28.52;;;;;;;7.31;100.00;99422.88;2073264;28;20208;-70
2022/04/16 00:18:00;;;;;;;35.47;28.25;;;;;;;7.29;100.00;99422.31;2073502;28;20188;-70
2022/04/16 00:19:02;;;;;;;32.53;29.02;;;;;;;7.31;100.00;99425.53;2073203;28;20346;-70
2022/04/16 00:20:09;;;;;;;32.50;28.50;;;;;;;7.32;100.00;99429.78;2073647;28;20192;-69
2022/04/16 00:21:12;;;;;;;35.47;29.55;;;;;;;7.30;100.00;99426.59;2065504;28;20210;-69
2022/04/16 00:22:13;;;;;;;34.97;30.33;;;;;;;7.30;100.00;99426.59;2065185;28;20303;-69
2022/04/16 00:23:15;;;;;;;36.70;29.73;;;;;;;7.30;100.00;99423.16;2065241;28;20193;-70
2022/04/16 00:24:17;;;;;;;32.10;28.38;;;;;;;7.33;100.00;99415.44;2065968;28;20230;-70
2022/04/16 00:25:19;;;;;;;33.55;28.83;;;;;;;7.31;100.00;99420.22;2066030;28;20659;-70
2022/04/16 00:26:20;;;;;;;36.00;30.55;;;;;;;7.31;100.00;99420.22;2065755;28;20204;-70
2022/04/16 00:27:21;;;;;;;36.42;29.83;;;;;;;7.24;100.00;99421.53;2065129;28;20192;-70
2022/04/16 00:28:26;;;;;;;32.97;29.37;;;;;;;7.24;100.00;99414.38;2066392;28;20703;-70
2022/04/16 00:29:30;;;;;;;34.58;29.35;;;;;;;7.21;100.00;99420.22;2067487;28;20242;-70
2022/04/16 00:30:37;;;;;;;41.83;30.92;;;;;;;7.22;100.00;99421.81;2067496;28;20193;-70
2022/04/16 00:31:38;;;;;;;39.05;30.70;;;;;;;7.19;100.00;99417.03;2066755;28;20684;-70
2022/04/16 00:32:40;;;;;;;36.83;30.97;;;;;;;7.23;100.00;99427.91;2066540;28;20624;-69
2022/04/16 00:33:41;;;;;;;37.17;31.05;;;;;;;7.23;100.00;99418.09;2066835;28;20189;-71
2022/04/16 00:34:45;;;;;;;40.10;31.13;;;;;;;7.23;100.00;99422.59;2067622;28;20280;-71
2022/04/16 00:35:46;;;;;;;40.75;31.65;;;;;;;7.23;100.00;99420.75;2067465;28;20186;-69
2022/04/16 00:36:48;;;;;;;39.15;31.90;;;;;;;7.22;100.00;99421.03;2066480;28;20697;-70
2022/04/16 00:37:49;;;;;;;39.67;31.92;;;;;;;7.19;100.00;99422.31;2058778;28;20194;-70
2022/04/16 00:38:51;;;;;;;38.83;31.07;;;;;;;7.18;100.00;99414.63;2066942;28;20199;-70
2022/04/16 00:39:52;;;;;;;36.70;30.67;;;;;;;7.16;100.00;99425.53;2066380;28;20456;-70
2022/04/16 00:40:55;;;;;;;42.30;32.25;;;;;;;7.17;100.00;99428.97;2067129;28;20219;-70
2022/04/16 00:41:56;;;;;;;41.00;31.77;;;;;;;7.19;100.00;99422.31;2067393;28;20713;-70
2022/04/16 00:43:00;;;;;;;38.93;31.50;;;;;;;7.19;100.00;99422.31;2074900;28;20605;-69
2022/04/16 00:44:01;;;;;;;41.35;33.58;;;;;;;7.15;100.00;99418.63;2074704;28;20918;-70
2022/04/16 00:45:03;;;;;;;41.87;32.57;;;;;;;7.21;100.00;99424.72;2067487;28;20192;-70
2022/04/16 00:46:05;;;;;;;39.40;32.40;;;;;;;7.19;100.00;99427.63;2067405;28;20193;-70
2022/04/16 00:47:07;;;;;;;40.75;34.00;;;;;;;7.19;100.00;99426.84;2074909;28;20204;-70
2022/04/16 00:48:07;;;;;;;44.30;34.35;;;;;;;7.16;100.00;99417.56;2066657;28;20259;-70
2022/04/16 00:49:09;;;;;;;41.83;33.70;;;;;;;7.15;100.00;99425.78;2066767;28;20279;-70
2022/04/16 00:50:11;;;;;;;46.60;35.75;;;;;;;7.13;100.00;99417.31;2066643;28;20205;-70
2022/04/16 00:51:13;;;;;;;43.20;33.85;;;;;;;7.14;100.00;99425.00;2066252;28;20232;-70
2022/04/16 00:52:14;;;;;;;44.03;34.30;;;;;;;7.11;100.00;99433.47;2066679;28;20597;-70
2022/04/16 00:53:16;;;;;;;44.40;34.37;;;;;;;7.06;100.00;99433.47;2058817;28;20220;-70
2022/04/16 00:54:18;;;;;;;43.72;35.03;;;;;;;7.06;100.00;99428.97;2058675;28;20208;-70
2022/04/16 00:55:20;;;;;;;44.38;34.83;;;;;;;7.05;100.00;99422.06;2066715;28;20189;-70
2022/04/16 00:56:20;;;;;;;44.30;35.50;;;;;;;7.06;100.00;99431.63;2066684;28;20205;-70
2022/04/16 00:57:23;;;;;;;47.80;34.53;;;;;;;7.05;100.00;99427.38;2058661;28;20294;-70
2022/04/16 00:58:25;;;;;;;45.83;34.88;;;;;;;7.09;100.00;99427.63;2066975;28;20524;-70
2022/04/16 00:59:28;;;;;;;43.40;34.92;;;;;;;7.06;100.00;99423.66;2067006;28;20196;-70
2022/04/16 01:00:29;;;;;;;44.80;34.67;;;;;;;7.10;100.00;99431.88;2066690;28;20192;-70
2022/04/16 01:01:32;;;;;;;47.23;35.47;;;;;;;7.08;100.00;99431.34;2066238;28;20228;-70
2022/04/16 01:02:34;;;;;;;46.05;35.13;;;;;;;7.05;100.00;99426.56;2066741;28;20197;-70
2022/04/16 01:03:39;;;;;;;49.42;34.97;;;;;;;7.08;100.00;99423.38;2066079;28;20215;-71
2022/04/16 01:04:40;;;;;;;49.97;35.13;;;;;;;7.09;100.00;99431.06;2066862;28;20205;-70
2022/04/16 01:05:43;;;;;;;46.00;35.45;;;;;;;7.11;100.00;99430.81;2067224;28;20196;-70
2022/04/16 01:06:48;;;;;;;45.25;35.65;;;;;;;7.14;100.00;99425.00;2074643;28;20243;-70
2022/04/16 01:07:53;;;;;;;47.28;35.13;;;;;;;7.15;100.00;99431.88;2074291;28;20633;-70
2022/04/16 01:08:54;;;;;;;46.25;35.17;;;;;;;7.15;100.00;99431.09;2067546;28;20193;-70
2022/04/16 01:09:56;;;;;;;47.90;34.65;;;;;;;7.11;100.00;99425.50;2067166;28;20189;-70
2022/04/16 01:10:58;;;;;;;45.40;35.83;;;;;;;7.17;100.00;99423.66;2067181;28;20196;-70
2022/04/16 01:12:00;;;;;;;46.30;35.03;;;;;;;7.21;100.00;99430.00;2067343;28;20664;-69
2022/04/16 01:13:03;;;;;;;44.72;34.72;;;;;;;7.18;100.00;99426.03;2066458;28;20216;-70
2022/04/16 01:14:05;;;;;;;45.53;35.28;;;;;;;7.18;100.00;99434.00;2066585;28;20240;-70
2022/04/16 01:15:06;;;;;;;49.67;36.70;;;;;;;7.16;100.00;99438.00;2066515;28;20204;-70
2022/04/16 01:16:08;;;;;;;47.58;34.92;;;;;;;7.17;100.00;99432.41;2066581;28;20181;-70
2022/04/16 01:17:11;;;;;;;47.90;35.05;;;;;;;7.17;100.00;99428.97;2066475;28;20197;-70
2022/04/16 01:18:16;;;;;;;44.42;34.28;;;;;;;7.19;100.00;99432.16;2058904;28;20251;-70
2022/04/16 01:19:21;;;;;;;46.38;33.65;;;;;;;7.18;100.00;99434.00;2066550;28;20200;-70
2022/04/16 01:20:23;;;;;;;46.33;34.78;;;;;;;7.19;100.00;99434.78;2067382;28;20531;-70
2022/04/16 01:21:24;;;;;;;44.17;33.72;;;;;;;7.23;100.00;99430.56;2065924;28;20257;-70
2022/04/16 01:22:30;;;;;;;44.70;35.53;;;;;;;7.27;100.00;99437.72;2066558;28;20246;-70
2022/04/16 01:23:30;;;;;;;47.53;36.35;;;;;;;7.25;100.00;99442.50;2067143;28;20177;-71
2022/04/16 01:24:34;;;;;;;46.93;34.93;;;;;;;7.26;100.00;99438.00;2067118;28;20193;-70
2022/04/16 01:25:36;;;;;;;43.13;35.78;;;;;;;7.22;100.00;99435.09;2067017;28;20243;-70
2022/04/16 01:26:38;;;;;;;47.45;36.85;;;;;;;7.25;100.00;99434.53;2067098;28;20186;-69
2022/04/16 01:27:43;;;;;;;41.22;33.17;;;;;;;7.23;100.00;99433.22;2067267;28;20204;-70
2022/04/16 01:28:44;;;;;;;46.28;35.10;;;;;;;7.22;100.00;99443.03;2065810;28;20224;-70
2022/04/16 01:29:47;;;;;;;42.80;34.58;;;;;;;7.25;100.00;99445.16;2066454;28;20193;-71
2022/04/16 01:30:49;;;;;;;45.47;31.90;;;;;;;7.27;100.00;99452.84;2066048;28;20205;-70
2022/04/16 01:31:50;;;;;;;41.72;32.58;;;;;;;7.46;100.00;99448.59;2058306;28;20720;-71
2022/04/16 01:32:52;;;;;;;43.25;33.92;;;;;;;7.40;100.00;99446.25;2066543;28;20673;-69
2022/04/16 01:33:57;;;;;;;32.05;28.45;;;;;;;7.39;100.00;99447.31;2066351;28;20287;-69
2022/04/16 01:34:59;;;;;;;35.60;29.90;;;;;;;7.42;100.00;99446.75;2058674;28;20197;-69
2022/04/16 01:36:01;;;;;;;28.35;25.30;;;;;;;7.51;100.00;99461.09;2057814;28;20676;-68
2022/04/16 01:37:02;;;;;;;27.42;24.63;;;;;;;7.53;100.00;99458.97;2058010;28;20201;-69
2022/04/16 01:38:07;;;;;;;25.45;23.10;;;;;;;7.49;100.00;99452.63;2066406;28;20186;-68
2022/04/16 01:39:10;;;;;;;23.33;21.17;;;;;;;7.54;100.00;99455.25;2065605;28;20204;-69
2022/04/16 01:40:15;;;;;;;24.40;22.17;;;;;;;7.44;100.00;99445.44;2058013;28;20229;-69
2022/04/16 01:41:16;;;;;;;23.80;21.80;;;;;;;7.40;100.00;99456.84;2066618;28;20193;-68
2022/04/16 01:42:18;;;;;;;22.43;20.40;;;;;;;7.36;100.00;99449.41;2066940;28;20231;-69
2022/04/16 01:43:19;;;;;;;20.00;18.42;;;;;;;7.47;100.00;99454.72;2066413;28;20197;-69
2022/04/16 01:44:21;;;;;;;20.90;19.20;;;;;;;7.48;100.00;99464.28;2058255;28;20318;-68
2022/04/16 01:45:25;;;;;;;20.80;19.10;;;;;;;7.32;100.00;99455.53;2057978;28;20209;-69
2022/04/16 01:46:30;;;;;;;20.70;19.15;;;;;;;7.32;100.00;99456.31;2066035;28;20212;-70
2022/04/16 01:47:33;;;;;;;19.55;18.05;;;;;;;7.23;100.00;99460.56;2066951;28;20690;-69
2022/04/16 01:48:35;;;;;;;19.92;18.42;;;;;;;7.16;100.00;99470.63;2065792;28;20691;-69
2022/04/16 01:49:36;;;;;;;19.08;17.67;;;;;;;7.22;100.00;99463.47;2066244;28;20615;-69
2022/04/16 01:50:37;;;;;;;19.43;18.10;;;;;;;7.08;100.00;99463.97;2074548;28;20200;-70
2022/04/16 01:51:38;;;;;;;18.35;16.85;;;;;;;7.16;100.00;99462.66;2066567;28;20309;-68
2022/04/16 01:52:42;;;;;;;19.17;17.77;;;;;;;7.18;100.00;99468.50;2066930;28;20192;-68
2022/04/16 01:53:46;;;;;;;19.67;18.17;;;;;;;7.19;100.00;99470.09;2067028;28;20255;-68
2022/04/16 01:54:47;;;;;;;19.60;18.20;;;;;;;7.15;100.00;99461.06;2066860;28;20652;-69
2022/04/16 01:55:49;;;;;;;19.13;17.83;;;;;;;7.07;100.00;99464.25;2066907;28;20189;-69
2022/04/16 01:56:51;;;;;;;20.27;18.67;;;;;;;6.98;100.00;99461.31;2066195;28;20204;-69
2022/04/16 01:57:53;;;;;;;19.67;18.17;;;;;;;6.93;100.00;99455.97;2066388;28;20217;-69
2022/04/16 01:58:54;;;;;;;19.88;18.33;;;;;;;7.02;100.00;99464.22;2066935;28;20217;-68
2022/04/16 01:59:56;;;;;;;20.00;18.50;;;;;;;7.09;100.00;99470.06;2066077;28;20205;-68
2022/04/16 02:00:58;;;;;;;17.95;16.70;;;;;;;7.02;100.00;99464.22;2066468;28;20710;-68
2022/04/16 02:02:00;;;;;;;18.65;17.17;;;;;;;7.00;100.00;99463.69;2066742;28;20201;-69
2022/04/16 02:03:00;;;;;;;17.83;16.42;;;;;;;7.04;100.00;99467.44;2074207;28;20196;-69
2022/04/16 02:04:02;;;;;;;18.70;17.20;;;;;;;6.99;100.00;99459.44;2074447;28;20275;-70
2022/04/16 02:05:04;;;;;;;18.13;16.83;;;;;;;6.93;100.00;99460.50;2074238;28;20228;-70
2022/04/16 02:06:09;;;;;;;18.58;17.20;;;;;;;6.90;100.00;99461.81;2073847;28;20213;-70
2022/04/16 02:07:10;;;;;;;19.08;17.67;;;;;;;6.84;100.00;99457.56;2066199;28;20695;-70
2022/04/16 02:08:12;;;;;;;17.92;16.52;;;;;;;6.84;100.00;99454.09;2066186;28;20193;-70
2022/04/16 02:09:14;;;;;;;18.83;17.42;;;;;;;6.77;100.00;99462.28;2074149;28;20564;-71
2022/04/16 02:10:16;;;;;;;19.55;17.95;;;;;;;6.83;100.00;99465.78;2074317;28;20218;-71
2022/04/16 02:11:17;;;;;;;18.48;17.17;;;;;;;6.85;100.00;99466.31;2066697;28;20555;-70
2022/04/16 02:12:19;;;;;;;18.30;16.90;;;;;;;6.84;100.00;99459.41;2066667;28;20205;-70
2022/04/16 02:13:20;;;;;;;19.02;17.52;;;;;;;6.75;100.00;99457.25;2066742;28;20663;-70
2022/04/16 02:14:23;;;;;;;17.58;16.30;;;;;;;6.84;100.00;99467.38;2066026;28;20200;-71
2022/04/16 02:15:27;;;;;;;18.23;16.92;;;;;;;6.88;100.00;99458.63;2066548;28;20204;-70
2022/04/16 02:16:29;;;;;;;17.95;16.65;;;;;;;6.86;100.00;99466.03;2066052;28;20244;-71
2022/04/16 02:17:32;;;;;;;19.13;17.73;;;;;;;6.83;100.00;99460.47;2066117;28;20319;-70
2022/04/16 02:18:34;;;;;;;18.90;17.60;;;;;;;6.75;100.00;99459.91;2066911;28;20196;-70
2022/04/16 02:19:36;;;;;;;18.90;17.50;;;;;;;6.74;100.00;99468.94;2066656;28;20625;-70
2022/04/16 02:20:38;;;;;;;18.08;16.77;;;;;;;6.82;100.00;99464.19;2065999;28;20283;-71
2022/04/16 02:21:40;;;;;;;19.05;17.70;;;;;;;6.80;100.00;99459.94;2057409;28;20241;-71
2022/04/16 02:22:43;;;;;;;18.30;16.90;;;;;;;6.78;100.00;99470.03;2066092;28;20216;-70
2022/04/16 02:23:44;;;;;;;18.45;17.05;;;;;;;6.72;100.00;99471.06;2065912;28;20711;-70
2022/04/16 02:24:47;;;;;;;18.37;16.93;;;;;;;6.74;100.00;99468.13;2066077;28;20193;-70
2022/04/16 02:25:48;;;;;;;18.75;17.20;;;;;;;6.72;100.00;99471.06;2066633;28;20197;-71
2022/04/16 02:26:49;;;;;;;18.23;16.93;;;;;;;6.72;100.00;99473.69;2065941;28;20696;-71
2022/04/16 02:27:52;;;;;;;17.65;16.45;;;;;;;6.77;100.00;99475.56;2066020;28;20193;-70
2022/04/16 02:28:58;;;;;;;18.80;17.40;;;;;;;6.75;100.00;99470.53;2066403;28;20233;-70
2022/04/16 02:30:00;;;;;;;19.13;17.52;;;;;;;6.71;100.00;99473.97;2065687;28;20278;-70
2022/04/16 02:31:01;;;;;;;18.43;17.03;;;;;;;6.75;100.00;99473.16;2065924;28;20259;-70
2022/04/16 02:32:03;;;;;;;18.52;17.13;;;;;;;6.76;100.00;99476.63;2065824;28;20215;-70
2022/04/16 02:33:06;;;;;;;19.08;17.77;;;;;;;6.75;100.00;99477.69;2058013;28;20189;-69
2022/04/16 02:34:08;;;;;;;20.42;18.83;;;;;;;6.66;100.00;99474.72;2066010;28;20193;-69
2022/04/16 02:35:11;;;;;;;20.30;18.90;;;;;;;6.65;100.00;99469.69;2066535;28;20220;-69
2022/04/16 02:36:12;;;;;;;20.35;18.85;;;;;;;6.56;100.00;99476.56;2065309;28;20277;-69
2022/04/16 02:37:14;;;;;;;20.10;18.70;;;;;;;6.54;100.00;99470.72;2057865;28;20299;-69
2022/04/16 02:38:15;;;;;;;21.58;19.90;;;;;;;6.50;100.00;99478.38;2066035;28;20199;-69
2022/04/16 02:39:16;;;;;;;20.43;19.03;;;;;;;6.45;100.00;99475.72;2065843;28;20289;-69
2022/04/16 02:40:18;;;;;;;22.48;20.88;;;;;;;6.46;100.00;99472.00;2066040;28;20190;-69
2022/04/16 02:41:20;;;;;;;24.15;22.40;;;;;;;6.32;100.00;99481.47;2066755;28;20189;-69
2022/04/16 02:42:21;;;;;;;24.27;22.55;;;;;;;6.23;100.00;99473.22;2066530;28;20186;-69
2022/04/16 02:43:23;;;;;;;23.77;22.17;;;;;;;6.17;100.00;99485.66;2066480;28;20686;-69
2022/04/16 02:47:05;;;;;;;26.23;24.38;;;;;;;6.08;100.00;99481.88;2066490;28;20624;-69
2022/04/16 02:48:07;;;;;;;24.73;23.02;;;;;;;6.05;100.00;99492.19;2065796;28;20284;-69
2022/04/16 02:49:08;;;;;;;26.08;24.27;;;;;;;6.13;100.00;99481.91;2065888;28;20246;-69
2022/04/16 02:50:12;;;;;;;25.58;23.58;;;;;;;6.03;100.00;99487.16;2066768;28;20507;-69
2022/04/16 02:51:12;;;;;;;25.30;23.40;;;;;;;6.03;100.00;99481.84;2065599;28;20262;-69
2022/04/16 02:52:14;;;;;;;24.60;22.80;;;;;;;6.06;100.00;99489.28;2066469;28;20208;-69
2022/04/16 02:53:15;;;;;;;24.30;22.50;;;;;;;6.02;100.00;99487.41;2074069;28;20208;-70
2022/04/16 02:54:16;;;;;;;23.07;21.30;;;;;;;6.01;100.00;99488.47;2074075;28;20283;-69
2022/04/16 02:55:19;;;;;;;24.80;22.90;;;;;;;6.04;100.00;99490.59;2065691;28;20216;-69
2022/04/16 02:56:21;;;;;;;26.83;24.60;;;;;;;5.99;100.00;99482.59;2065909;28;20185;-69
2022/04/16 02:57:22;;;;;;;26.85;24.50;;;;;;;5.99;100.00;99491.34;2066545;28;20557;-69
2022/04/16 02:58:24;;;;;;;26.52;24.42;;;;;;;5.97;100.00;99503.25;2065645;28;20192;-69
2022/04/16 02:59:25;;;;;;;26.50;24.40;;;;;;;5.89;100.00;99494.69;2065796;28;20197;-69
2022/04/16 03:00:27;;;;;;;26.50;24.50;;;;;;;5.83;100.00;99490.44;2065685;28;20193;-69
2022/04/16 03:01:28;;;;;;;25.33;23.13;;;;;;;5.87;100.00;99496.00;2066017;28;20207;-70
2022/04/16 03:02:29;;;;;;;25.73;23.63;;;;;;;5.87;100.00;99502.09;2073898;28;20283;-69
2022/04/16 03:03:34;;;;;;;27.27;24.80;;;;;;;5.93;100.00;99500.31;2073852;28;20264;-69
2022/04/16 03:04:36;;;;;;;26.63;24.27;;;;;;;5.88;100.00;99503.69;2066316;28;20185;-70
2022/04/16 03:05:38;;;;;;;27.08;24.98;;;;;;;5.88;100.00;99497.59;2065610;28;20209;-69
2022/04/16 03:06:38;;;;;;;26.95;24.65;;;;;;;5.99;100.00;99509.88;2065571;28;20546;-69
2022/04/16 03:07:41;;;;;;;26.60;24.20;;;;;;;5.88;100.00;99510.84;2065390;28;20200;-69
2022/04/16 03:08:41;;;;;;;25.67;23.48;;;;;;;5.89;100.00;99513.22;2057692;28;20613;-69
2022/04/16 03:09:43;;;;;;;25.07;23.17;;;;;;;5.85;100.00;99506.06;2057698;28;20264;-70
2022/04/16 03:10:46;;;;;;;26.90;24.90;;;;;;;5.74;100.00;99507.84;2065926;28;20554;-69
2022/04/16 03:11:48;;;;;;;26.83;24.83;;;;;;;5.70;100.00;99513.88;2065575;28;20228;-70
2022/04/16 03:12:51;;;;;;;27.88;25.75;;;;;;;5.72;100.00;99509.91;2065723;28;20271;-69
2022/04/16 03:13:53;;;;;;;25.95;23.95;;;;;;;5.66;100.00;99510.94;2066280;28;20182;-69
2022/04/16 03:17:33;;;;;;;26.50;24.60;;;;;;;5.59;100.00;99510.34;2065582;28;20193;-69
2022/04/16 03:18:35;;;;;;;25.55;23.65;;;;;;;5.54;100.00;99510.28;2065885;28;20193;-69
2022/04/16 03:19:36;;;;;;;25.50;23.40;;;;;;;5.54;100.00;99512.94;2065564;28;20204;-69
2022/04/16 03:20:38;;;;;;;25.83;23.73;;;;;;;5.48;100.00;99514.75;2065639;28;20185;-69
2022/04/16 03:21:38;;;;;;;26.05;23.95;;;;;;;5.44;100.00;99512.84;2065744;28;20225;-69
2022/04/16 03:22:44;;;;;;;26.80;24.30;;;;;;;5.49;100.00;99513.72;2066241;28;20231;-69
2022/04/16 03:23:45;;;;;;;24.95;22.73;;;;;;;5.49;100.00;99520.84;2066303;28;20192;-70
2022/04/16 03:24:47;;;;;;;25.02;22.92;;;;;;;5.51;100.00;99522.19;2066267;28;20213;-69
2022/04/16 03:25:53;;;;;;;27.10;25.10;;;;;;;5.47;100.00;99517.63;2066199;28;20563;-69
2022/04/16 03:26:54;;;;;;;27.15;24.85;;;;;;;5.44;100.00;99528.72;2066333;28;20632;-69
2022/04/16 03:27:56;;;;;;;26.20;24.00;;;;;;;5.56;100.00;99527.53;2066441;28;20518;-69
2022/04/16 03:28:56;;;;;;;26.00;23.90;;;;;;;5.52;100.00;99537.00;2065990;28;20235;-69
2022/04/16 03:29:58;;;;;;;25.90;23.80;;;;;;;5.53;100.00;99529.88;2065449;28;20734;-69
2022/04/16 03:31:01;;;;;;;25.42;23.33;;;;;;;5.53;100.00;99538.59;2057465;28;20684;-69
2022/04/16 03:32:05;;;;;;;25.10;23.00;;;;;;;5.43;100.00;99535.06;2065815;28;20200;-69
2022/04/16 03:33:09;;;;;;;26.30;24.20;;;;;;;5.49;100.00;99531.44;2066242;28;20189;-69
2022/04/16 03:34:09;;;;;;;26.30;24.20;;;;;;;5.40;100.00;99531.09;2073517;28;20278;-69
2022/04/16 03:35:11;;;;;;;25.77;23.57;;;;;;;5.49;100.00;99526.94;2065506;28;20197;-69
2022/04/16 03:36:13;;;;;;;25.75;23.60;;;;;;;5.42;100.00;99536.94;2056777;28;20236;-69
2022/04/16 03:37:13;;;;;;;26.67;24.48;;;;;;;5.53;100.00;99538.59;2057546;28;20194;-69
2022/04/16 03:38:17;;;;;;;26.50;24.40;;;;;;;5.53;100.00;99543.09;2065697;28;20652;-69
2022/04/16 03:39:20;;;;;;;25.83;23.60;;;;;;;5.49;100.00;99544.66;2066074;28;20192;-70
2022/04/16 03:40:24;;;;;;;25.42;23.23;;;;;;;5.53;100.00;99545.75;2066064;28;20185;-69
2022/04/16 03:41:27;;;;;;;24.48;22.38;;;;;;;5.44;100.00;99544.59;2066075;28;20193;-69
2022/04/16 03:42:29;;;;;;;26.17;24.08;;;;;;;5.48;100.00;99546.50;2065927;28;20189;-69
2022/04/16 03:43:30;;;;;;;24.17;22.08;;;;;;;5.47;100.00;99546.75;2066039;28;20577;-69
2022/04/16 03:44:31;;;;;;;24.33;22.10;;;;;;;5.46;100.00;99543.31;2066132;28;20196;-69
2022/04/16 03:45:34;;;;;;;24.40;22.20;;;;;;;5.38;100.00;99546.38;2065361;28;20263;-68
2022/04/16 03:46:38;;;;;;;24.33;22.23;;;;;;;5.30;100.00;99547.66;2065421;28;20227;-69
2022/04/16 03:47:40;;;;;;;23.75;21.75;;;;;;;5.29;100.00;99550.53;2065321;28;20293;-69
2022/04/16 03:48:43;;;;;;;24.52;22.42;;;;;;;5.35;100.00;99549.56;2057590;28;20206;-69
2022/04/16 03:49:43;;;;;;;25.15;23.15;;;;;;;5.51;100.00;99555.78;2057468;28;20260;-69
2022/04/16 03:50:45;;;;;;;26.90;24.80;;;;;;;5.50;100.00;99551.56;2065344;28;20231;-69
2022/04/16 03:51:46;;;;;;;26.58;24.48;;;;;;;5.46;100.00;99553.88;2064973;28;20229;-69
2022/04/16 03:52:49;;;;;;;25.13;23.13;;;;;;;5.43;100.00;99564.97;2065518;28;20185;-69
2022/04/16 03:53:50;;;;;;;23.52;21.63;;;;;;;5.35;100.00;99557.50;2065983;28;20189;-69
2022/04/16 04:00:14;;;;;;;24.20;22.30;;;;;;;5.30;100.00;99570.66;2065810;28;20244;-68
2022/04/16 04:01:15;;;;;;;25.00;23.00;;;;;;;5.22;100.00;99569.28;2065967;28;20200;-69
2022/04/16 04:02:17;;;;;;;23.90;22.10;;;;;;;5.23;100.00;99573.50;2064836;28;20197;-69
2022/04/16 04:03:18;;;;;;;24.13;22.23;;;;;;;5.25;100.00;99573.25;2064972;28;20216;-69
2022/04/16 04:04:20;;;;;;;24.15;22.25;;;;;;;5.24;100.00;99575.09;2073407;28;20683;-69
2022/04/16 04:05:20;;;;;;;24.20;22.30;;;;;;;5.23;100.00;99578.00;2065282;28;20201;-68
2022/04/16 04:06:24;;;;;;;23.63;21.80;;;;;;;5.27;100.00;99581.75;2064919;28;20307;-70
2022/04/16 04:07:25;;;;;;;25.38;23.30;;;;;;;5.29;100.00;99571.69;2066137;28;20572;-69
2022/04/16 04:08:27;;;;;;;24.80;22.80;;;;;;;5.31;100.00;99580.22;2066114;28;20189;-69
2022/04/16 04:09:28;;;;;;;23.50;21.55;;;;;;;5.21;100.00;99574.78;2065154;28;20197;-69
2022/04/16 04:10:29;;;;;;;24.73;22.83;;;;;;;5.14;100.00;99585.56;2065443;28;20189;-69
2022/04/16 04:11:30;;;;;;;25.63;23.63;;;;;;;5.08;100.00;99584.72;2065867;28;20192;-69
2022/04/16 04:12:33;;;;;;;25.23;23.33;;;;;;;5.19;100.00;99588.25;2065873;28;20191;-69
2022/04/16 04:13:35;;;;;;;26.90;25.10;;;;;;;5.22;100.00;99594.94;2065881;28;20193;-69
2022/04/16 04:14:39;;;;;;;28.02;26.00;;;;;;;5.25;100.00;99589.94;2065820;28;20272;-69
2022/04/16 04:15:41;;;;;;;26.08;24.17;;;;;;;5.28;100.00;99594.72;2065874;28;20181;-68
2022/04/16 04:16:42;;;;;;;24.70;22.90;;;;;;;5.35;100.00;99594.53;2065915;28;20554;-69
2022/04/16 04:17:44;;;;;;;23.93;22.13;;;;;;;5.27;100.00;99593.13;2066008;28;20271;-69
2022/04/16 04:18:44;;;;;;;25.20;23.30;;;;;;;5.39;100.00;99595.66;2065214;28;20714;-69
2022/04/16 04:19:47;;;;;;;24.77;22.97;;;;;;;5.31;100.00;99588.16;2065328;28;20674;-69
2022/04/16 04:20:48;;;;;;;24.83;23.02;;;;;;;5.33;100.00;99599.28;2065172;28;20197;-69
2022/04/16 04:21:50;;;;;;;26.40;24.42;;;;;;;5.29;100.00;99600.81;2064647;28;20311;-69
2022/04/16 04:22:50;;;;;;;26.67;24.52;;;;;;;5.31;100.00;99601.38;2065192;28;20275;-69
2022/04/16 04:23:52;;;;;;;27.67;25.43;;;;;;;5.23;100.00;99599.16;2065823;28;20185;-69
2022/04/16 04:24:53;;;;;;;26.45;24.45;;;;;;;5.17;100.00;99597.50;2065857;28;20726;-70
2022/04/16 04:25:55;;;;;;;26.00;24.00;;;;;;;5.19;100.00;99605.97;2066049;28;20551;-69
2022/04/16 04:26:58;;;;;;;25.20;23.17;;;;;;;5.29;100.00;99606.09;2065843;28;20193;-69
2022/04/16 04:28:02;;;;;;;25.65;23.55;;;;;;;5.20;100.00;99610.22;2064942;28;20205;-69
2022/04/16 04:29:03;;;;;;;26.95;24.75;;;;;;;5.21;100.00;99606.53;2057380;28;20233;-69
2022/04/16 04:30:06;;;;;;;25.80;23.80;;;;;;;5.21;100.00;99611.81;2065261;28;20204;-69
2022/04/16 04:31:10;;;;;;;26.42;24.23;;;;;;;5.17;100.00;99614.16;2066098;28;20193;-69
2022/04/16 04:32:12;;;;;;;25.80;23.70;;;;;;;5.17;100.00;99613.38;2065111;28;20638;-69
2022/04/16 04:33:13;;;;;;;26.40;24.30;;;;;;;5.11;100.00;99610.66;2057403;28;20732;-69
2022/04/16 04:34:16;;;;;;;27.93;25.67;;;;;;;5.15;100.00;99615.47;2057578;28;20532;-70
2022/04/16 04:35:18;;;;;;;26.30;24.20;;;;;;;5.10;100.00;99614.34;2065221;28;20324;-69
2022/04/16 04:36:20;;;;;;;27.52;25.33;;;;;;;5.08;100.00;99620.94;2072818;28;20236;-69
2022/04/16 04:37:22;;;;;;;27.90;25.65;;;;;;;5.01;100.00;99621.09;2073388;28;20258;-70
2022/04/16 04:38:23;;;;;;;27.65;25.25;;;;;;;4.98;100.00;99624.25;2065081;28;20296;-69
2022/04/16 04:39:24;;;;;;;26.70;24.50;;;;;;;4.99;100.00;99625.84;2064782;28;20201;-69
2022/04/16 04:40:26;;;;;;;26.67;24.43;;;;;;;5.08;100.00;99636.81;2073354;28;20192;-70
2022/04/16 04:41:27;;;;;;;26.27;24.05;;;;;;;5.11;100.00;99631.81;2065875;28;20209;-70
2022/04/16 04:42:32;;;;;;;25.42;23.42;;;;;;;5.07;100.00;99628.06;2065766;28;20549;-69
2022/04/16 04:43:34;;;;;;;24.58;22.58;;;;;;;5.08;100.00;99636.81;2065827;28;20213;-69
2022/04/16 04:44:36;;;;;;;24.63;22.52;;;;;;;5.04;100.00;99639.16;2065775;28;20272;-69
2022/04/16 04:45:37;;;;;;;25.02;23.02;;;;;;;5.05;100.00;99630.16;2065059;28;20293;-69
2022/04/16 04:46:38;;;;;;;24.63;22.63;;;;;;;5.01;100.00;99641.47;2057073;28;20280;-69
2022/04/16 04:47:39;;;;;;;25.67;23.40;;;;;;;5.01;100.00;99636.19;2065209;28;20684;-70
2022/04/16 04:48:44;;;;;;;24.45;22.65;;;;;;;4.98;100.00;99649.91;2065822;28;20273;-69
2022/04/16 04:49:47;;;;;;;25.30;23.30;;;;;;;4.96;100.00;99650.16;2065990;28;20204;-70
2022/04/16 04:50:49;;;;;;;25.23;23.08;;;;;;;5.06;100.00;99645.00;2065866;28;20276;-69
2022/04/16 04:51:50;;;;;;;24.70;22.80;;;;;;;5.03;100.00;99650.75;2064006;28;20600;-70
2022/04/16 04:52:51;;;;;;;24.50;22.60;;;;;;;4.97;100.00;99645.66;2057084;28;20312;-70
2022/04/16 04:53:52;;;;;;;24.20;22.27;;;;;;;4.98;100.00;99648.06;2065181;28;20189;-69
2022/04/16 04:54:54;;;;;;;25.43;23.33;;;;;;;4.93;100.00;99655.09;2065082;28;20296;-70
2022/04/16 04:55:56;;;;;;;25.45;23.25;;;;;;;4.98;100.00;99663.91;2065257;28;20197;-70